TimeMST,TemperatureF,Dew PointF,Humidity,Sea Level PressureIn,VisibilityMPH,Wind Direction,Wind SpeedMPH,Gust SpeedMPH,PrecipitationIn,Events,Conditions,WindDirDegrees,DateUTC
12:53 AM,28.9,28.0,96,30.45,9.0,NNE,4.6,-,N/A,,Overcast,30,2012-11-13 07:53:00
1:53 AM,30.0,28.0,92,30.43,10.0,ENE,3.5,-,N/A,,Overcast,70,2012-11-13 08:53:00
2:53 AM,30.0,27.0,88,30.43,10.0,NNE,3.5,-,N/A,,Overcast,20,2012-11-13 09:53:00
3:12 AM,30.2,26.6,86,30.37,10.0,North,3.5,-,N/A,,Overcast,360,2012-11-13 10:12:00
3:53 AM,30.0,27.0,88,30.43,10.0,Calm,Calm,-,N/A,,Overcast,0,2012-11-13 10:53:00
4:53 AM,30.0,28.0,92,30.43,10.0,NNE,3.5,-,N/A,,Overcast,20,2012-11-13 11:53:00
5:53 AM,30.0,27.0,88,30.44,10.0,NNE,5.8,-,N/A,,Overcast,20,2012-11-13 12:53:00
6:53 AM,30.9,27.0,85,30.44,10.0,NNE,4.6,-,N/A,,Overcast,20,2012-11-13 13:53:00
7:53 AM,30.9,27.0,85,30.44,10.0,NNE,5.8,-,N/A,,Overcast,30,2012-11-13 14:53:00
8:53 AM,32.0,28.0,85,30.45,10.0,NNE,5.8,-,N/A,,Overcast,30,2012-11-13 15:53:00
9:53 AM,34.0,28.0,79,30.44,10.0,NNE,5.8,-,N/A,,Overcast,30,2012-11-13 16:53:00
10:53 AM,36.0,28.0,73,30.43,10.0,ENE,5.8,-,N/A,,Overcast,60,2012-11-13 17:53:00
11:53 AM,37.0,28.0,70,30.41,10.0,NE,4.6,-,N/A,,Mostly Cloudy,50,2012-11-13 18:53:00
12:53 PM,39.0,28.0,65,30.39,10.0,NNE,3.5,-,N/A,,Overcast,30,2012-11-13 19:53:00
1:53 PM,39.0,28.9,67,30.36,10.0,East,4.6,-,0.00,,Overcast,80,2012-11-13 20:53:00
2:53 PM,41.0,28.9,62,30.34,10.0,ENE,4.6,-,N/A,,Mostly Cloudy,70,2012-11-13 21:53:00
3:53 PM,41.0,28.0,60,30.33,10.0,NE,3.5,-,N/A,,Mostly Cloudy,50,2012-11-13 22:53:00
4:53 PM,39.0,28.0,65,30.33,10.0,NE,4.6,-,N/A,,Mostly Cloudy,40,2012-11-13 23:53:00
5:53 PM,37.0,30.0,76,30.32,10.0,Calm,Calm,-,N/A,,Overcast,0,2012-11-14 00:53:00
6:53 PM,35.1,30.9,85,30.32,10.0,North,5.8,-,N/A,,Overcast,10,2012-11-14 01:53:00
7:53 PM,34.0,30.9,89,30.32,10.0,North,5.8,-,N/A,,Overcast,350,2012-11-14 02:53:00
8:53 PM,33.1,30.0,89,30.31,10.0,North,3.5,-,N/A,,Overcast,10,2012-11-14 03:53:00
9:53 PM,32.0,28.9,88,30.32,10.0,Calm,Calm,-,N/A,,Mostly Cloudy,0,2012-11-14 04:53:00
10:53 PM,30.9,28.9,92,30.31,8.0,Calm,Calm,-,N/A,,Mostly Cloudy,0,2012-11-14 05:53:00
11:53 PM,30.9,28.9,92,30.30,8.0,Calm,Calm,-,N/A,,Clear,0,2012-11-14 06:53:00